createdAt,value
2022-08-05T00:02:07.984Z,101666.59
2022-08-05T00:04:46.956Z,101665.22
2022-08-05T00:07:59.216Z,101673.34
2022-08-05T00:10:15.788Z,101687.09
2022-08-05T00:12:56.600Z,101687.03
2022-08-05T00:15:54.990Z,101697.59
2022-08-05T00:18:22.676Z,101701.69
2022-08-05T00:21:00.357Z,101702.34
2022-08-05T00:23:44.346Z,101683.44
2022-08-05T00:26:17.177Z,101681.34
2022-08-05T00:28:46.024Z,101675.47
2022-08-05T00:31:14.766Z,101682.78
2022-08-05T00:34:53.355Z,101681.88
2022-08-05T00:37:12.357Z,101674.22
2022-08-05T00:39:36.973Z,101670.38
2022-08-05T00:42:10.351Z,101673.50
2022-08-05T00:44:58.806Z,101668.34
2022-08-05T00:47:53.524Z,101653.28
2022-08-05T00:50:37.832Z,101666.31
2022-08-05T00:53:09.635Z,101668.28
2022-08-05T00:56:03.188Z,101665.59
2022-08-05T00:58:32.751Z,101672.09
2022-08-05T01:01:01.318Z,101670.59
2022-08-05T01:03:33.396Z,101678.34
2022-08-05T01:06:03.936Z,101674.94
2022-08-05T01:08:42.801Z,101676.25
2022-08-05T01:11:22.671Z,101662.94
2022-08-05T01:14:15.432Z,101667.56
2022-08-05T01:16:55.199Z,101671.25
2022-08-05T01:20:01.790Z,101675.47
2022-08-05T01:22:41.716Z,101680.09
2022-08-05T01:26:02.120Z,101676.72
2022-08-05T01:28:39.261Z,101690.25
2022-08-05T01:31:16.395Z,101676.91
2022-08-05T01:33:55.514Z,101683.97
2022-08-05T01:36:32.398Z,101678.69
2022-08-05T01:39:02.347Z,101673.66
2022-08-05T01:41:37.583Z,101679.72
2022-08-05T01:44:09.849Z,101681.47
2022-08-05T01:46:44.641Z,101679.91
2022-08-05T01:49:23.724Z,101690.63
2022-08-05T01:52:00.001Z,101687.56
2022-08-05T01:54:46.138Z,101688.91
2022-08-05T01:58:10.553Z,101693.03
2022-08-05T02:00:21.400Z,101694.84
2022-08-05T02:03:31.260Z,101701.38
2022-08-05T02:06:37.252Z,101705.31
2022-08-05T02:08:57.994Z,101711.75
2022-08-05T02:11:34.247Z,101708.72
2022-08-05T02:14:13.703Z,101698.09
2022-08-05T02:16:54.777Z,101690.72
2022-08-05T02:19:35.681Z,101698.69
2022-08-05T02:22:25.625Z,101694.56
2022-08-05T02:25:06.229Z,101692.97
2022-08-05T02:27:59.520Z,101689.22
2022-08-05T02:30:51.793Z,101692.19
2022-08-05T02:33:35.891Z,101691.25
2022-08-05T02:36:17.281Z,101691.78
2022-08-05T02:38:53.304Z,101694.38
2022-08-05T02:41:28.811Z,101695.09
2022-08-05T02:44:12.130Z,101688.75
2022-08-05T02:46:58.754Z,101692.59
2022-08-05T02:49:37.108Z,101685.84
2022-08-05T02:52:29.831Z,101690.38
2022-08-05T02:55:01.975Z,101691.78
2022-08-05T02:58:09.653Z,101686.53
2022-08-05T03:00:28.709Z,101684.16
2022-08-05T03:03:01.542Z,101682.09
2022-08-05T03:06:55.958Z,101684.75
2022-08-05T03:08:27.154Z,101681.25
2022-08-05T03:11:53.367Z,101685.00
2022-08-05T03:14:03.189Z,101681.19
2022-08-05T03:16:32.494Z,101675.78
2022-08-05T03:19:12.698Z,101669.06
2022-08-05T03:21:58.808Z,101667.47
2022-08-05T03:24:30.842Z,101673.75
2022-08-05T03:27:03.209Z,101673.13
2022-08-05T03:29:46.002Z,101675.56
2022-08-05T03:32:30.699Z,101674.34
2022-08-05T03:35:00.646Z,101684.59
2022-08-05T03:37:44.747Z,101686.03
2022-08-05T03:40:31.275Z,101690.16
2022-08-05T03:43:01.372Z,101692.34
2022-08-05T03:45:57.080Z,101690.91
2022-08-05T03:48:29.803Z,101691.06
2022-08-05T03:52:38.007Z,101688.22
2022-08-05T03:55:50.264Z,101683.66
2022-08-05T03:56:58.972Z,101685.28
2022-08-05T03:59:46.801Z,101692.53
2022-08-05T04:02:38.415Z,101679.31
2022-08-05T04:05:09.890Z,101686.66
2022-08-05T04:07:57.069Z,101695.69
2022-08-05T04:10:33.321Z,101690.81
2022-08-05T04:13:08.105Z,101700.69
2022-08-05T04:15:37.289Z,101703.34
2022-08-05T04:18:10.226Z,101704.97
2022-08-05T04:20:59.252Z,101717.41
2022-08-05T04:24:05.323Z,101705.13
2022-08-05T04:26:23.025Z,101707.25
2022-08-05T04:29:07.092Z,101706.50
2022-08-05T04:31:38.562Z,101712.25
2022-08-05T04:34:31.228Z,101704.63
2022-08-05T04:37:00.264Z,101694.97
2022-08-05T04:39:35.384Z,101702.13
2022-08-05T04:42:06.747Z,101714.94
2022-08-05T04:44:35.947Z,101706.91
2022-08-05T04:47:09.817Z,101711.38
2022-08-05T04:50:02.154Z,101717.16
2022-08-05T04:52:42.358Z,101712.88
2022-08-05T04:55:34.033Z,101715.16
2022-08-05T04:58:15.659Z,101719.03
2022-08-05T05:00:51.667Z,101715.81
2022-08-05T05:03:25.028Z,101714.16
2022-08-05T05:06:39.126Z,101717.19
2022-08-05T05:08:50.165Z,101716.03
2022-08-05T05:11:52.915Z,101714.31
2022-08-05T05:14:36.214Z,101722.38
2022-08-05T05:17:13.308Z,101715.44
2022-08-05T05:19:47.435Z,101716.34
2022-08-05T05:22:22.624Z,101718.38
2022-08-05T05:24:57.134Z,101716.13
2022-08-05T05:27:44.331Z,101712.09
2022-08-05T05:30:30.555Z,101703.84
2022-08-05T05:33:14.178Z,101704.50
2022-08-05T05:38:39.364Z,101717.13
2022-08-05T05:44:05.281Z,101719.78
2022-08-05T05:46:57.868Z,101726.06
2022-08-05T05:49:33.318Z,101729.41
2022-08-05T05:52:05.859Z,101725.16
2022-08-05T05:54:50.893Z,101728.56
2022-08-05T05:57:23.256Z,101725.81
2022-08-05T05:59:58.275Z,101723.19
2022-08-05T06:02:37.561Z,101723.41
2022-08-05T06:05:17.737Z,101726.31
2022-08-05T06:08:01.121Z,101717.03
2022-08-05T06:10:49.219Z,101710.25
2022-08-05T06:13:21.338Z,101715.50
2022-08-05T06:16:30.547Z,101714.53
2022-08-05T06:18:49.178Z,101707.06
2022-08-05T06:21:22.185Z,101719.94
2022-08-05T06:23:50.540Z,101720.53
2022-08-05T06:26:26.253Z,101721.47
2022-08-05T06:29:03.672Z,101725.19
2022-08-05T06:31:35.444Z,101730.28
2022-08-05T06:34:07.650Z,101732.72
2022-08-05T06:36:56.882Z,101740.28
2022-08-05T06:39:27.330Z,101745.66
2022-08-05T06:41:59.244Z,101751.91
2022-08-05T06:44:28.593Z,101754.97
2022-08-05T06:46:57.606Z,101758.22
2022-08-05T06:50:01.813Z,101756.63
2022-08-05T06:52:36.952Z,101759.66
2022-08-05T06:55:03.425Z,101768.81
2022-08-05T06:58:03.259Z,101762.19
2022-08-05T07:00:31.384Z,101767.38
2022-08-05T07:02:59.871Z,101768.13
2022-08-05T07:05:37.284Z,101768.41
2022-08-05T07:08:10.650Z,101780.31
2022-08-05T07:10:52.941Z,101783.44
2022-08-05T07:13:58.698Z,101788.47
2022-08-05T07:17:58.749Z,101789.03
2022-08-05T07:22:28.460Z,101790.63
2022-08-05T07:25:21.908Z,101794.16
2022-08-05T07:27:57.251Z,101800.31
2022-08-05T07:30:40.373Z,101803.22
2022-08-05T07:33:16.210Z,101810.19
2022-08-05T07:36:04.000Z,101801.81
2022-08-05T07:38:43.676Z,101813.56
2022-08-05T07:42:09.232Z,101809.78
2022-08-05T07:44:18.564Z,101811.81
2022-08-05T07:46:50.641Z,101818.19
2022-08-05T07:49:20.572Z,101828.22
2022-08-05T07:51:54.230Z,101832.88
2022-08-05T07:54:33.607Z,101829.34
2022-08-05T07:57:18.131Z,101833.53
2022-08-05T07:59:55.613Z,101840.00
2022-08-05T08:02:30.797Z,101842.44
2022-08-05T08:05:01.059Z,101845.56
2022-08-05T08:07:39.459Z,101837.97
2022-08-05T08:10:20.523Z,101834.34
2022-08-05T08:12:49.956Z,101847.19
2022-08-05T08:16:35.675Z,101846.47
2022-08-05T08:18:09.973Z,101849.81
2022-08-05T08:21:01.866Z,101859.94
2022-08-05T08:24:02.441Z,101854.06
2022-08-05T08:26:27.038Z,101855.59
2022-08-05T08:29:09.775Z,101866.59
2022-08-05T08:31:49.947Z,101869.00
2022-08-05T08:34:29.859Z,101869.66
2022-08-05T08:37:04.886Z,101870.28
2022-08-05T08:39:37.451Z,101875.84
2022-08-05T08:42:22.485Z,101870.28
2022-08-05T08:45:22.307Z,101879.44
2022-08-05T08:48:12.922Z,101878.16
2022-08-05T08:51:03.615Z,101878.56
2022-08-05T08:53:44.958Z,101882.81
2022-08-05T08:56:14.238Z,101874.66
2022-08-05T08:58:47.751Z,101884.53
2022-08-05T09:01:18.968Z,101877.25
2022-08-05T09:03:53.067Z,101885.72
2022-08-05T09:06:29.742Z,101890.59
2022-08-05T09:09:00.593Z,101885.72
2022-08-05T09:11:51.671Z,101890.88
2022-08-05T09:14:57.715Z,101890.28
2022-08-05T09:17:40.199Z,101902.97
2022-08-05T09:20:09.272Z,101904.03
2022-08-05T09:23:18.578Z,101910.06
2022-08-05T09:26:01.420Z,101900.53
2022-08-05T09:28:33.754Z,101905.88
2022-08-05T09:31:18.228Z,101909.69
2022-08-05T09:33:58.582Z,101916.78
2022-08-05T09:36:55.323Z,101910.28
2022-08-05T09:39:45.554Z,101910.59
2022-08-05T09:42:28.251Z,101922.44
2022-08-05T09:46:04.808Z,101919.88
2022-08-05T09:47:56.691Z,101924.06
2022-08-05T09:50:38.857Z,101930.34
2022-08-05T09:53:23.002Z,101920.28
2022-08-05T09:56:04.709Z,101925.13
2022-08-05T09:58:41.688Z,101936.63
2022-08-05T10:01:22.528Z,101935.94
2022-08-05T10:04:10.366Z,101933.91
2022-08-05T10:06:41.435Z,101948.91
2022-08-05T10:09:27.736Z,101944.28
2022-08-05T10:12:18.654Z,101949.38
2022-08-05T10:15:26.704Z,101947.88
2022-08-05T10:18:23.762Z,101947.13
2022-08-05T10:20:55.334Z,101942.44
2022-08-05T10:23:55.609Z,101949.28
2022-08-05T10:26:15.339Z,101952.59
2022-08-05T10:28:47.102Z,101947.88
2022-08-05T10:32:54.224Z,101953.69
2022-08-05T10:34:08.709Z,101958.69
2022-08-05T10:36:38.528Z,101962.03
2022-08-05T10:39:15.317Z,101962.41
2022-08-05T10:42:03.538Z,101962.09
2022-08-05T10:44:37.432Z,101961.78
2022-08-05T10:47:27.113Z,101971.25
2022-08-05T10:50:31.936Z,101976.03
2022-08-05T10:53:01.054Z,101984.00
2022-08-05T10:55:38.579Z,101989.81
2022-08-05T10:58:22.378Z,101988.03
2022-08-05T11:01:11.389Z,101998.03
2022-08-05T11:04:05.654Z,101998.56
2022-08-05T11:06:57.682Z,102005.38
2022-08-05T11:09:45.316Z,102007.78
2022-08-05T11:12:50.802Z,102005.44
2022-08-05T11:15:58.992Z,102015.75
2022-08-05T11:18:37.602Z,102022.81
2022-08-05T11:21:48.792Z,102030.59
2022-08-05T11:24:30.112Z,102032.00
2022-08-05T11:27:50.075Z,102045.00
2022-08-05T11:30:24.209Z,102047.31
2022-08-05T11:33:43.965Z,102045.47
2022-08-05T11:36:34.342Z,102056.28
2022-08-05T11:39:12.050Z,102058.03
2022-08-05T11:42:01.462Z,102073.13
2022-08-05T11:44:53.822Z,102075.88
2022-08-05T11:47:49.275Z,102071.06
2022-08-05T11:50:25.383Z,102076.31
2022-08-05T11:52:58.193Z,102083.03
2022-08-05T11:55:36.041Z,102076.25
2022-08-05T11:58:10.088Z,102095.19
2022-08-05T12:00:44.069Z,102087.41
2022-08-05T12:03:28.764Z,102097.84
2022-08-05T12:06:05.984Z,102103.25
2022-08-05T12:08:49.768Z,102107.41
2022-08-05T12:11:24.253Z,102102.22
2022-08-05T12:14:04.054Z,102099.94
2022-08-05T12:16:38.747Z,102107.78
2022-08-05T12:19:11.125Z,102104.28
2022-08-05T12:21:59.642Z,102100.47
2022-08-05T12:24:31.311Z,102109.94
2022-08-05T12:27:09.707Z,102098.94
2022-08-05T12:30:06.532Z,102100.59
2022-08-05T12:32:50.402Z,102111.00
2022-08-05T12:35:37.126Z,102103.88
2022-08-05T12:38:22.290Z,102114.03
2022-08-05T12:41:03.776Z,102117.13
2022-08-05T12:43:34.755Z,102117.63
2022-08-05T12:46:12.477Z,102125.91
2022-08-05T12:48:42.120Z,102124.16
2022-08-05T12:52:09.989Z,102126.94
2022-08-05T12:54:14.708Z,102137.78
2022-08-05T12:56:57.117Z,102139.72
2022-08-05T13:01:58.097Z,102152.19
2022-08-05T13:02:27.220Z,102135.72
2022-08-05T13:05:12.610Z,102140.09
2022-08-05T13:07:57.731Z,102139.03
2022-08-05T13:10:35.710Z,102136.03
2022-08-05T13:14:06.835Z,102128.28
2022-08-05T13:16:17.293Z,102134.78
2022-08-05T13:19:03.142Z,102145.53
2022-08-05T13:21:37.995Z,102139.09
2022-08-05T13:24:36.206Z,102134.91
2022-08-05T13:27:23.026Z,102132.56
2022-08-05T13:30:34.475Z,102136.56
2022-08-05T13:37:34.579Z,102132.69
2022-08-05T13:40:15.038Z,102133.56
2022-08-05T13:42:49.947Z,102150.91
2022-08-05T13:45:33.964Z,102140.03
2022-08-05T13:48:08.687Z,102151.19
2022-08-05T13:50:39.452Z,102155.41
2022-08-05T13:53:15.990Z,102161.56
2022-08-05T13:55:49.280Z,102166.13
2022-08-05T13:58:35.078Z,102166.22
2022-08-05T14:01:56.304Z,102172.63
2022-08-05T14:04:49.858Z,102176.56
2022-08-05T14:07:26.304Z,102178.75
2022-08-05T14:10:18.628Z,102187.22
2022-08-05T14:12:49.114Z,102196.41
2022-08-05T14:16:08.818Z,102193.03
2022-08-05T14:18:14.979Z,102199.00
2022-08-05T14:20:47.140Z,102197.81
2022-08-05T14:23:23.387Z,102204.06
2022-08-05T14:25:57.915Z,102206.72
2022-08-05T14:28:29.107Z,102209.50
2022-08-05T14:31:17.268Z,102199.59
2022-08-05T14:34:11.987Z,102218.69
2022-08-05T14:37:18.703Z,102217.97
2022-08-05T14:40:16.759Z,102231.84
2022-08-05T14:43:03.358Z,102234.00
2022-08-05T14:45:49.007Z,102231.75
2022-08-05T14:48:33.337Z,102235.28
2022-08-05T14:51:30.661Z,102217.50
2022-08-05T14:54:27.548Z,102230.38
2022-08-05T15:00:04.795Z,102234.78
2022-08-05T15:02:37.402Z,102233.69
2022-08-05T15:05:13.539Z,102230.50
2022-08-05T15:08:08.777Z,102231.41
2022-08-05T15:10:46.186Z,102231.97
2022-08-05T15:13:18.986Z,102237.94
2022-08-05T15:16:14.999Z,102235.41
2022-08-05T15:19:14.406Z,102237.88
2022-08-05T15:22:09.146Z,102237.97
2022-08-05T15:25:11.945Z,102249.16
2022-08-05T15:27:52.307Z,102250.22
2022-08-05T15:30:21.466Z,102247.63
2022-08-05T15:33:07.837Z,102243.84
2022-08-05T15:35:36.534Z,102247.91
2022-08-05T15:38:35.920Z,102245.53
2022-08-05T15:41:23.330Z,102257.91
2022-08-05T15:43:58.591Z,102254.94
2022-08-05T15:46:47.994Z,102257.41
2022-08-05T15:49:52.077Z,102266.34
2022-08-05T15:52:52.274Z,102257.09
2022-08-05T15:55:17.928Z,102254.50
2022-08-05T15:57:52.788Z,102261.34
2022-08-05T16:00:50.701Z,102265.41
2022-08-05T16:03:41.140Z,102257.00
2022-08-05T16:06:13.602Z,102275.78
2022-08-05T16:09:03.105Z,102270.94
2022-08-05T16:11:40.046Z,102277.81
2022-08-05T16:14:17.087Z,102276.38
2022-08-05T16:20:04.655Z,102280.53
2022-08-05T16:26:16.938Z,102278.56
2022-08-05T16:29:39.047Z,102278.06
2022-08-05T16:32:44.620Z,102281.91
2022-08-05T16:35:16.051Z,102283.63
2022-08-05T16:38:16.347Z,102293.47
2022-08-05T16:40:59.704Z,102291.09
2022-08-05T16:43:31.358Z,102294.50
2022-08-05T16:46:13.072Z,102302.13
2022-08-05T16:48:52.738Z,102302.91
2022-08-05T16:51:21.634Z,102300.09
2022-08-05T16:54:04.897Z,102309.59
2022-08-05T16:56:41.609Z,102306.28
2022-08-05T16:59:10.511Z,102311.41
2022-08-05T17:01:54.805Z,102313.16
2022-08-05T17:04:26.483Z,102317.63
2022-08-05T17:07:00.162Z,102314.00
2022-08-05T17:09:30.273Z,102329.31
2022-08-05T17:12:08.015Z,102325.69
2022-08-05T17:14:40.004Z,102337.06
2022-08-05T17:17:15.082Z,102326.72
2022-08-05T17:19:46.055Z,102335.88
2022-08-05T17:22:25.142Z,102334.84
2022-08-05T17:24:57.542Z,102335.78
2022-08-05T17:27:33.782Z,102333.28
2022-08-05T17:30:04.104Z,102339.69
2022-08-05T17:32:34.762Z,102324.75
2022-08-05T17:35:03.959Z,102332.25
2022-08-05T17:37:40.487Z,102339.44
2022-08-05T17:40:17.340Z,102343.03
2022-08-05T17:42:51.296Z,102348.81
2022-08-05T17:45:25.040Z,102342.47
2022-08-05T17:48:00.195Z,102349.13
2022-08-05T17:50:30.803Z,102351.75
2022-08-05T17:53:01.951Z,102356.50
2022-08-05T17:55:38.163Z,102366.13
2022-08-05T17:58:14.623Z,102367.94
2022-08-05T18:00:50.765Z,102365.00
2022-08-05T18:03:59.289Z,102378.16
2022-08-05T18:06:14.994Z,102374.72
2022-08-05T18:08:52.358Z,102375.78
2022-08-05T18:11:32.515Z,102376.13
2022-08-05T18:14:13.597Z,102376.47
2022-08-05T18:18:00.751Z,102390.38
2022-08-05T18:20:14.021Z,102381.84
2022-08-05T18:22:54.064Z,102390.84
2022-08-05T18:25:22.825Z,102391.97
2022-08-05T18:27:53.522Z,102395.97
2022-08-05T18:30:26.214Z,102403.88
2022-08-05T18:33:00.532Z,102409.19
2022-08-05T18:36:00.817Z,102397.91
2022-08-05T18:38:26.345Z,102407.00
2022-08-05T18:41:55.811Z,102406.03
2022-08-05T18:43:49.083Z,102411.00
2022-08-05T18:46:20.239Z,102413.59
2022-08-05T18:49:18.591Z,102421.53
2022-08-05T18:52:32.912Z,102423.06
2022-08-05T18:55:10.393Z,102419.03
2022-08-05T18:57:43.051Z,102427.50
2022-08-05T19:00:20.739Z,102428.94
2022-08-05T19:02:49.388Z,102426.91
2022-08-05T19:06:12.306Z,102434.31
2022-08-05T19:08:15.422Z,102429.47
2022-08-05T19:10:47.168Z,102433.31
2022-08-05T19:13:16.036Z,102448.69
2022-08-05T19:15:59.984Z,102441.66
2022-08-05T19:18:32.379Z,102440.03
2022-08-05T19:21:00.581Z,102447.09
2022-08-05T19:24:06.757Z,102452.78
2022-08-05T19:26:22.219Z,102449.31
2022-08-05T19:28:51.154Z,102458.41
2022-08-05T19:31:22.957Z,102455.00
2022-08-05T19:33:56.256Z,102460.13
2022-08-05T19:36:29.388Z,102456.47
2022-08-05T19:39:00.807Z,102457.69
2022-08-05T19:41:58.197Z,102468.53
2022-08-05T19:44:18.453Z,102472.16
2022-08-05T19:46:47.001Z,102481.06
2022-08-05T19:49:17.199Z,102480.66
2022-08-05T19:52:05.522Z,102491.94
2022-08-05T19:54:36.860Z,102497.28
2022-08-05T19:57:09.216Z,102499.84
2022-08-05T19:59:54.540Z,102494.72
2022-08-05T20:02:31.354Z,102496.13
2022-08-05T20:05:02.490Z,102494.06
2022-08-05T20:07:47.276Z,102510.38
2022-08-05T20:10:22.394Z,102504.06
2022-08-05T20:12:53.651Z,102512.94
2022-08-05T20:15:48.124Z,102510.38
2022-08-05T20:18:32.623Z,102519.84
2022-08-05T20:21:00.258Z,102520.75
2022-08-05T20:23:39.551Z,102528.25
2022-08-05T20:26:19.765Z,102526.63
2022-08-05T20:28:50.885Z,102533.97
2022-08-05T20:31:21.777Z,102542.13
2022-08-05T20:33:51.569Z,102537.34
2022-08-05T20:36:20.796Z,102547.88
2022-08-05T20:38:53.254Z,102541.16
2022-08-05T20:41:27.024Z,102546.34
2022-08-05T20:43:59.080Z,102537.44
2022-08-05T20:46:31.278Z,102542.91
2022-08-05T20:49:00.109Z,102545.19
2022-08-05T20:51:30.733Z,102550.28
2022-08-05T20:54:01.225Z,102554.34
2022-08-05T20:56:40.142Z,102555.09
2022-08-05T20:59:14.117Z,102560.34
2022-08-05T21:01:47.332Z,102555.53
2022-08-05T21:04:16.843Z,102550.28
2022-08-05T21:06:45.984Z,102552.91
2022-08-05T21:09:15.956Z,102549.13
2022-08-05T21:12:10.491Z,102559.03
2022-08-05T21:14:34.890Z,102563.16
2022-08-05T21:17:05.473Z,102560.63
2022-08-05T21:19:47.139Z,102563.81
2022-08-05T21:22:18.316Z,102558.91
2022-08-05T21:24:51.892Z,102560.84
2022-08-05T21:27:25.057Z,102563.56
2022-08-05T21:29:56.621Z,102565.44
2022-08-05T21:32:27.371Z,102569.03
2022-08-05T21:35:08.856Z,102561.88
2022-08-05T21:37:47.388Z,102568.25
2022-08-05T21:40:23.194Z,102574.44
2022-08-05T21:42:53.827Z,102574.03
2022-08-05T21:45:25.241Z,102565.00
2022-08-05T21:48:11.192Z,102567.06
2022-08-05T21:50:54.170Z,102576.78
2022-08-05T21:53:27.082Z,102579.50
2022-08-05T21:56:04.866Z,102579.25
2022-08-05T21:58:57.057Z,102583.81
2022-08-05T22:01:26.652Z,102575.97
2022-08-05T22:03:55.247Z,102584.69
2022-08-05T22:06:35.451Z,102585.38
2022-08-05T22:09:14.017Z,102583.50
2022-08-05T22:11:46.897Z,102590.38
2022-08-05T22:14:33.303Z,102588.75
2022-08-05T22:17:03.894Z,102580.13
2022-08-05T22:20:00.424Z,102594.94
2022-08-05T22:22:27.163Z,102584.06
2022-08-05T22:25:21.850Z,102577.78
2022-08-05T22:28:11.417Z,102591.97
2022-08-05T22:30:55.984Z,102590.81
2022-08-05T22:33:55.678Z,102587.19
2022-08-05T22:36:15.283Z,102586.84
2022-08-05T22:38:47.970Z,102601.13
2022-08-05T22:42:05.500Z,102599.44
2022-08-05T22:44:07.760Z,102594.06
2022-08-05T22:46:39.834Z,102600.34
2022-08-05T22:49:12.215Z,102596.53
2022-08-05T22:52:04.311Z,102610.13
2022-08-05T22:54:35.125Z,102609.47
2022-08-05T22:57:03.649Z,102609.81
2022-08-05T22:59:45.304Z,102610.78
2022-08-05T23:02:18.585Z,102617.34
2022-08-05T23:05:01.946Z,102615.81
2022-08-05T23:07:45.235Z,102605.25
2022-08-05T23:10:19.866Z,102612.47
2022-08-05T23:12:51.563Z,102620.81
2022-08-05T23:15:27.005Z,102625.16
2022-08-05T23:18:02.045Z,102615.63
2022-08-05T23:20:32.500Z,102616.09
2022-08-05T23:23:03.718Z,102621.38
2022-08-05T23:25:52.346Z,102627.88
2022-08-05T23:28:26.892Z,102642.03
2022-08-05T23:31:15.788Z,102633.44
2022-08-05T23:34:06.189Z,102641.91
2022-08-05T23:36:39.901Z,102635.06
2022-08-05T23:39:17.251Z,102638.81
2022-08-05T23:41:52.348Z,102641.97
2022-08-05T23:44:22.538Z,102645.44
2022-08-05T23:46:53.404Z,102645.19
2022-08-05T23:49:35.723Z,102650.41
2022-08-05T23:52:25.536Z,102655.94
2022-08-05T23:54:55.125Z,102654.28
2022-08-05T23:57:24.460Z,102648.72
